sensor_id;sensor_type;location;lat;lon;timestamp;P1;durP1;ratioP1;P2;durP2;ratioP2
40198;SDS011;25906;43.536;26.068;2024-03-08T00:02:35;41.38;;;18.10;;
40198;SDS011;25906;43.536;26.068;2024-03-08T00:05:22;41.25;;;18.63;;
40198;SDS011;25906;43.536;26.068;2024-03-08T00:10:54;40.05;;;16.80;;
40198;SDS011;25906;43.536;26.068;2024-03-08T00:13:40;45.95;;;19.15;;
40198;SDS011;25906;43.536;26.068;2024-03-08T00:16:27;40.70;;;18.10;;
40198;SDS011;25906;43.536;26.068;2024-03-08T00:19:12;36.90;;;18.05;;
40198;SDS011;25906;43.536;26.068;2024-03-08T00:21:58;39.65;;;17.45;;
40198;SDS011;25906;43.536;26.068;2024-03-08T00:24:43;38.42;;;17.35;;
40198;SDS011;25906;43.536;26.068;2024-03-08T00:27:29;40.10;;;18.58;;
40198;SDS011;25906;43.536;26.068;2024-03-08T00:30:18;39.03;;;18.02;;
40198;SDS011;25906;43.536;26.068;2024-03-08T00:33:04;44.50;;;20.45;;
40198;SDS011;25906;43.536;26.068;2024-03-08T00:35:49;47.60;;;19.50;;
40198;SDS011;25906;43.536;26.068;2024-03-08T00:38:35;44.25;;;19.05;;
40198;SDS011;25906;43.536;26.068;2024-03-08T00:41:20;41.67;;;18.90;;
40198;SDS011;25906;43.536;26.068;2024-03-08T00:44:06;41.33;;;18.80;;
40198;SDS011;25906;43.536;26.068;2024-03-08T00:46:51;50.63;;;19.38;;
40198;SDS011;25906;43.536;26.068;2024-03-08T00:49:37;51.20;;;20.38;;
40198;SDS011;25906;43.536;26.068;2024-03-08T00:52:23;42.60;;;19.45;;
40198;SDS011;25906;43.536;26.068;2024-03-08T00:55:11;47.88;;;20.88;;
40198;SDS011;25906;43.536;26.068;2024-03-08T00:57:57;52.47;;;21.50;;
40198;SDS011;25906;43.536;26.068;2024-03-08T01:00:42;46.60;;;20.45;;
40198;SDS011;25906;43.536;26.068;2024-03-08T01:03:28;42.28;;;19.77;;
40198;SDS011;25906;43.536;26.068;2024-03-08T01:06:16;49.28;;;20.45;;
40198;SDS011;25906;43.536;26.068;2024-03-08T01:09:02;41.30;;;19.35;;
40198;SDS011;25906;43.536;26.068;2024-03-08T01:14:33;50.63;;;20.80;;
40198;SDS011;25906;43.536;26.068;2024-03-08T01:17:18;47.05;;;19.63;;
40198;SDS011;25906;43.536;26.068;2024-03-08T01:20:04;49.67;;;20.55;;
40198;SDS011;25906;43.536;26.068;2024-03-08T01:22:50;51.45;;;20.63;;
40198;SDS011;25906;43.536;26.068;2024-03-08T01:25:35;48.25;;;21.17;;
40198;SDS011;25906;43.536;26.068;2024-03-08T01:28:21;51.15;;;21.33;;
40198;SDS011;25906;43.536;26.068;2024-03-08T01:31:06;50.00;;;21.42;;
40198;SDS011;25906;43.536;26.068;2024-03-08T01:33:52;46.85;;;20.42;;
40198;SDS011;25906;43.536;26.068;2024-03-08T01:36:38;50.85;;;21.77;;
40198;SDS011;25906;43.536;26.068;2024-03-08T01:39:23;43.40;;;19.30;;
40198;SDS011;25906;43.536;26.068;2024-03-08T01:42:09;56.15;;;21.13;;
40198;SDS011;25906;43.536;26.068;2024-03-08T01:44:56;47.67;;;21.58;;
40198;SDS011;25906;43.536;26.068;2024-03-08T01:47:42;55.95;;;21.10;;
40198;SDS011;25906;43.536;26.068;2024-03-08T01:50:27;59.65;;;22.25;;
40198;SDS011;25906;43.536;26.068;2024-03-08T01:53:13;52.40;;;21.20;;
40198;SDS011;25906;43.536;26.068;2024-03-08T01:56:00;54.70;;;22.27;;
40198;SDS011;25906;43.536;26.068;2024-03-08T01:58:47;50.08;;;21.42;;
40198;SDS011;25906;43.536;26.068;2024-03-08T02:01:33;55.40;;;22.38;;
40198;SDS011;25906;43.536;26.068;2024-03-08T02:04:19;55.47;;;22.08;;
40198;SDS011;25906;43.536;26.068;2024-03-08T02:07:06;56.70;;;22.75;;
40198;SDS011;25906;43.536;26.068;2024-03-08T02:09:51;56.30;;;23.40;;
40198;SDS011;25906;43.536;26.068;2024-03-08T02:12:37;57.92;;;22.80;;
40198;SDS011;25906;43.536;26.068;2024-03-08T02:15:23;55.35;;;22.20;;
40198;SDS011;25906;43.536;26.068;2024-03-08T02:23:49;63.80;;;24.58;;
40198;SDS011;25906;43.536;26.068;2024-03-08T02:26:37;57.80;;;23.52;;
40198;SDS011;25906;43.536;26.068;2024-03-08T02:29:22;58.90;;;25.30;;
40198;SDS011;25906;43.536;26.068;2024-03-08T02:32:09;61.00;;;24.52;;
40198;SDS011;25906;43.536;26.068;2024-03-08T02:34:57;60.03;;;24.25;;
40198;SDS011;25906;43.536;26.068;2024-03-08T02:37:44;71.35;;;25.80;;
40198;SDS011;25906;43.536;26.068;2024-03-08T02:40:32;61.13;;;24.65;;
40198;SDS011;25906;43.536;26.068;2024-03-08T02:43:18;65.35;;;24.98;;
40198;SDS011;25906;43.536;26.068;2024-03-08T02:46:04;63.38;;;23.92;;
40198;SDS011;25906;43.536;26.068;2024-03-08T02:48:50;63.13;;;25.48;;
40198;SDS011;25906;43.536;26.068;2024-03-08T02:51:35;69.88;;;26.08;;
40198;SDS011;25906;43.536;26.068;2024-03-08T02:57:07;67.78;;;25.92;;
40198;SDS011;25906;43.536;26.068;2024-03-08T02:59:55;77.20;;;26.58;;
40198;SDS011;25906;43.536;26.068;2024-03-08T03:02:41;60.47;;;25.00;;
40198;SDS011;25906;43.536;26.068;2024-03-08T03:05:27;64.55;;;24.55;;
40198;SDS011;25906;43.536;26.068;2024-03-08T03:08:13;70.22;;;26.70;;
40198;SDS011;25906;43.536;26.068;2024-03-08T03:10:58;60.15;;;23.48;;
40198;SDS011;25906;43.536;26.068;2024-03-08T03:13:43;71.55;;;25.65;;
40198;SDS011;25906;43.536;26.068;2024-03-08T03:16:33;64.20;;;23.73;;
40198;SDS011;25906;43.536;26.068;2024-03-08T03:19:18;67.63;;;25.02;;
40198;SDS011;25906;43.536;26.068;2024-03-08T03:22:03;68.90;;;25.02;;
40198;SDS011;25906;43.536;26.068;2024-03-08T03:24:50;72.18;;;24.92;;
40198;SDS011;25906;43.536;26.068;2024-03-08T03:27:36;66.35;;;25.90;;
40198;SDS011;25906;43.536;26.068;2024-03-08T03:30:22;62.17;;;23.70;;
40198;SDS011;25906;43.536;26.068;2024-03-08T03:33:12;58.63;;;23.90;;
40198;SDS011;25906;43.536;26.068;2024-03-08T03:36:00;77.93;;;26.13;;
40198;SDS011;25906;43.536;26.068;2024-03-08T03:38:46;66.85;;;22.55;;
40198;SDS011;25906;43.536;26.068;2024-03-08T03:41:31;63.75;;;23.90;;
40198;SDS011;25906;43.536;26.068;2024-03-08T03:44:16;64.88;;;24.15;;
40198;SDS011;25906;43.536;26.068;2024-03-08T03:47:02;64.65;;;23.17;;
40198;SDS011;25906;43.536;26.068;2024-03-08T03:49:48;76.20;;;26.30;;
40198;SDS011;25906;43.536;26.068;2024-03-08T03:52:33;63.70;;;25.10;;
40198;SDS011;25906;43.536;26.068;2024-03-08T03:55:19;66.68;;;23.63;;
40198;SDS011;25906;43.536;26.068;2024-03-08T04:00:50;71.35;;;23.10;;
40198;SDS011;25906;43.536;26.068;2024-03-08T04:03:36;64.50;;;23.10;;
40198;SDS011;25906;43.536;26.068;2024-03-08T04:09:07;60.17;;;24.00;;
40198;SDS011;25906;43.536;26.068;2024-03-08T04:11:53;60.70;;;22.60;;
40198;SDS011;25906;43.536;26.068;2024-03-08T04:14:41;66.68;;;23.63;;
40198;SDS011;25906;43.536;26.068;2024-03-08T04:17:27;77.53;;;26.00;;
40198;SDS011;25906;43.536;26.068;2024-03-08T04:20:13;66.40;;;26.10;;
40198;SDS011;25906;43.536;26.068;2024-03-08T04:22:59;67.10;;;24.85;;
40198;SDS011;25906;43.536;26.068;2024-03-08T04:25:45;71.20;;;27.02;;
40198;SDS011;25906;43.536;26.068;2024-03-08T04:28:30;62.10;;;24.17;;
40198;SDS011;25906;43.536;26.068;2024-03-08T04:34:01;63.75;;;23.80;;
40198;SDS011;25906;43.536;26.068;2024-03-08T04:36:47;64.53;;;23.20;;
40198;SDS011;25906;43.536;26.068;2024-03-08T04:39:33;64.13;;;24.45;;
40198;SDS011;25906;43.536;26.068;2024-03-08T04:42:19;65.50;;;24.52;;
40198;SDS011;25906;43.536;26.068;2024-03-08T04:47:50;60.67;;;23.70;;
40198;SDS011;25906;43.536;26.068;2024-03-08T04:50:37;59.63;;;23.98;;
40198;SDS011;25906;43.536;26.068;2024-03-08T04:53:23;61.67;;;23.77;;
40198;SDS011;25906;43.536;26.068;2024-03-08T04:56:08;63.70;;;25.00;;
40198;SDS011;25906;43.536;26.068;2024-03-08T04:58:54;61.05;;;24.15;;
40198;SDS011;25906;43.536;26.068;2024-03-08T05:01:39;62.17;;;26.83;;
40198;SDS011;25906;43.536;26.068;2024-03-08T05:07:10;56.97;;;23.40;;
40198;SDS011;25906;43.536;26.068;2024-03-08T05:09:56;67.95;;;24.48;;
40198;SDS011;25906;43.536;26.068;2024-03-08T05:12:41;56.70;;;23.52;;
40198;SDS011;25906;43.536;26.068;2024-03-08T05:15:27;65.15;;;25.55;;
40198;SDS011;25906;43.536;26.068;2024-03-08T05:18:12;62.03;;;25.50;;
40198;SDS011;25906;43.536;26.068;2024-03-08T05:20:59;66.45;;;26.90;;
40198;SDS011;25906;43.536;26.068;2024-03-08T05:23:44;65.80;;;23.92;;
40198;SDS011;25906;43.536;26.068;2024-03-08T05:26:30;60.22;;;26.52;;
40198;SDS011;25906;43.536;26.068;2024-03-08T05:29:15;65.88;;;27.50;;
40198;SDS011;25906;43.536;26.068;2024-03-08T05:32:01;68.82;;;26.50;;
40198;SDS011;25906;43.536;26.068;2024-03-08T05:34:47;69.30;;;26.17;;
40198;SDS011;25906;43.536;26.068;2024-03-08T05:37:33;67.32;;;27.90;;
40198;SDS011;25906;43.536;26.068;2024-03-08T05:40:18;70.35;;;27.35;;
40198;SDS011;25906;43.536;26.068;2024-03-08T05:43:04;82.75;;;28.65;;
40198;SDS011;25906;43.536;26.068;2024-03-08T05:45:50;77.15;;;27.23;;
40198;SDS011;25906;43.536;26.068;2024-03-08T05:48:36;70.13;;;27.63;;
40198;SDS011;25906;43.536;26.068;2024-03-08T05:51:25;78.93;;;28.73;;
40198;SDS011;25906;43.536;26.068;2024-03-08T05:54:13;75.13;;;29.13;;
40198;SDS011;25906;43.536;26.068;2024-03-08T05:56:59;75.20;;;28.95;;
40198;SDS011;25906;43.536;26.068;2024-03-08T05:59:44;79.60;;;28.52;;
40198;SDS011;25906;43.536;26.068;2024-03-08T06:02:29;68.63;;;30.52;;
40198;SDS011;25906;43.536;26.068;2024-03-08T06:05:15;73.18;;;29.95;;
40198;SDS011;25906;43.536;26.068;2024-03-08T06:08:00;75.45;;;30.23;;
40198;SDS011;25906;43.536;26.068;2024-03-08T06:13:35;69.15;;;28.30;;
40198;SDS011;25906;43.536;26.068;2024-03-08T06:16:21;69.43;;;29.92;;
40198;SDS011;25906;43.536;26.068;2024-03-08T06:19:06;71.53;;;28.35;;
40198;SDS011;25906;43.536;26.068;2024-03-08T06:21:52;75.43;;;31.50;;
40198;SDS011;25906;43.536;26.068;2024-03-08T06:24:38;79.75;;;30.67;;
40198;SDS011;25906;43.536;26.068;2024-03-08T06:27:23;70.85;;;28.50;;
40198;SDS011;25906;43.536;26.068;2024-03-08T06:30:09;70.78;;;29.77;;
40198;SDS011;25906;43.536;26.068;2024-03-08T06:32:55;71.10;;;28.30;;
40198;SDS011;25906;43.536;26.068;2024-03-08T06:35:40;73.38;;;30.17;;
40198;SDS011;25906;43.536;26.068;2024-03-08T06:38:26;77.05;;;27.75;;
40198;SDS011;25906;43.536;26.068;2024-03-08T06:41:12;77.25;;;29.27;;
40198;SDS011;25906;43.536;26.068;2024-03-08T06:44:00;80.03;;;32.15;;
40198;SDS011;25906;43.536;26.068;2024-03-08T06:46:45;70.72;;;29.00;;
40198;SDS011;25906;43.536;26.068;2024-03-08T06:49:32;71.95;;;29.08;;
40198;SDS011;25906;43.536;26.068;2024-03-08T06:52:18;67.57;;;28.30;;
40198;SDS011;25906;43.536;26.068;2024-03-08T06:55:03;79.30;;;29.02;;
40198;SDS011;25906;43.536;26.068;2024-03-08T06:57:50;65.70;;;27.98;;
40198;SDS011;25906;43.536;26.068;2024-03-08T07:00:36;70.00;;;30.45;;
40198;SDS011;25906;43.536;26.068;2024-03-08T07:03:22;71.13;;;25.65;;
40198;SDS011;25906;43.536;26.068;2024-03-08T07:06:07;72.47;;;28.42;;
40198;SDS011;25906;43.536;26.068;2024-03-08T07:08:53;64.70;;;28.08;;
40198;SDS011;25906;43.536;26.068;2024-03-08T07:11:38;87.10;;;29.70;;
40198;SDS011;25906;43.536;26.068;2024-03-08T07:14:24;70.82;;;28.38;;
40198;SDS011;25906;43.536;26.068;2024-03-08T07:17:09;78.90;;;30.70;;
40198;SDS011;25906;43.536;26.068;2024-03-08T07:19:54;72.95;;;26.10;;
40198;SDS011;25906;43.536;26.068;2024-03-08T07:22:40;69.22;;;27.90;;
40198;SDS011;25906;43.536;26.068;2024-03-08T07:25:25;81.60;;;30.85;;
40198;SDS011;25906;43.536;26.068;2024-03-08T07:28:14;68.70;;;27.17;;
40198;SDS011;25906;43.536;26.068;2024-03-08T07:30:59;79.53;;;29.67;;
40198;SDS011;25906;43.536;26.068;2024-03-08T07:34:02;68.63;;;28.08;;
40198;SDS011;25906;43.536;26.068;2024-03-08T07:36:48;73.43;;;28.17;;
40198;SDS011;25906;43.536;26.068;2024-03-08T07:39:35;65.47;;;27.20;;
40198;SDS011;25906;43.536;26.068;2024-03-08T07:45:08;81.00;;;28.30;;
40198;SDS011;25906;43.536;26.068;2024-03-08T07:47:54;72.13;;;25.20;;
40198;SDS011;25906;43.536;26.068;2024-03-08T07:50:41;71.90;;;27.70;;
40198;SDS011;25906;43.536;26.068;2024-03-08T07:53:26;71.85;;;28.60;;
40198;SDS011;25906;43.536;26.068;2024-03-08T07:56:12;73.05;;;26.98;;
40198;SDS011;25906;43.536;26.068;2024-03-08T07:58:58;73.57;;;28.52;;
40198;SDS011;25906;43.536;26.068;2024-03-08T08:01:44;71.05;;;28.33;;
40198;SDS011;25906;43.536;26.068;2024-03-08T08:04:29;66.75;;;25.50;;
40198;SDS011;25906;43.536;26.068;2024-03-08T08:07:15;79.03;;;28.17;;
40198;SDS011;25906;43.536;26.068;2024-03-08T08:10:00;62.80;;;25.77;;
40198;SDS011;25906;43.536;26.068;2024-03-08T08:12:46;73.35;;;25.95;;
40198;SDS011;25906;43.536;26.068;2024-03-08T08:15:31;74.15;;;26.45;;
40198;SDS011;25906;43.536;26.068;2024-03-08T08:18:19;70.82;;;25.70;;
40198;SDS011;25906;43.536;26.068;2024-03-08T08:21:06;68.93;;;27.13;;
40198;SDS011;25906;43.536;26.068;2024-03-08T08:23:52;61.80;;;24.73;;
40198;SDS011;25906;43.536;26.068;2024-03-08T08:26:37;66.55;;;25.83;;
40198;SDS011;25906;43.536;26.068;2024-03-08T08:29:23;76.75;;;27.45;;
40198;SDS011;25906;43.536;26.068;2024-03-08T08:32:08;74.60;;;26.50;;
40198;SDS011;25906;43.536;26.068;2024-03-08T08:34:55;63.05;;;24.55;;
40198;SDS011;25906;43.536;26.068;2024-03-08T08:37:41;70.63;;;26.00;;
40198;SDS011;25906;43.536;26.068;2024-03-08T08:40:26;57.67;;;25.30;;
40198;SDS011;25906;43.536;26.068;2024-03-08T08:43:12;63.63;;;24.90;;
40198;SDS011;25906;43.536;26.068;2024-03-08T08:45:59;78.50;;;27.55;;
40198;SDS011;25906;43.536;26.068;2024-03-08T08:48:44;77.97;;;25.90;;
40198;SDS011;25906;43.536;26.068;2024-03-08T08:51:32;62.30;;;25.50;;
40198;SDS011;25906;43.536;26.068;2024-03-08T08:54:21;67.20;;;25.75;;
40198;SDS011;25906;43.536;26.068;2024-03-08T08:57:10;67.95;;;24.45;;
40198;SDS011;25906;43.536;26.068;2024-03-08T08:59:55;68.82;;;24.27;;
40198;SDS011;25906;43.536;26.068;2024-03-08T09:02:41;60.17;;;23.55;;
40198;SDS011;25906;43.536;26.068;2024-03-08T09:05:27;63.22;;;23.95;;
40198;SDS011;25906;43.536;26.068;2024-03-08T09:08:12;60.13;;;23.70;;
40198;SDS011;25906;43.536;26.068;2024-03-08T09:10:58;63.50;;;26.08;;
40198;SDS011;25906;43.536;26.068;2024-03-08T09:13:44;65.68;;;25.60;;
40198;SDS011;25906;43.536;26.068;2024-03-08T09:16:31;69.18;;;25.42;;
40198;SDS011;25906;43.536;26.068;2024-03-08T09:19:18;65.97;;;26.30;;
40198;SDS011;25906;43.536;26.068;2024-03-08T09:22:04;68.72;;;25.85;;
40198;SDS011;25906;43.536;26.068;2024-03-08T09:24:50;65.93;;;23.88;;
40198;SDS011;25906;43.536;26.068;2024-03-08T09:27:37;58.38;;;25.08;;
40198;SDS011;25906;43.536;26.068;2024-03-08T09:30:24;53.70;;;22.98;;
40198;SDS011;25906;43.536;26.068;2024-03-08T09:33:10;58.78;;;22.50;;
40198;SDS011;25906;43.536;26.068;2024-03-08T09:35:56;56.17;;;24.25;;
40198;SDS011;25906;43.536;26.068;2024-03-08T09:38:45;57.08;;;23.25;;
40198;SDS011;25906;43.536;26.068;2024-03-08T09:41:30;56.40;;;23.33;;
40198;SDS011;25906;43.536;26.068;2024-03-08T09:44:16;64.57;;;24.35;;
40198;SDS011;25906;43.536;26.068;2024-03-08T09:47:01;54.53;;;22.55;;
40198;SDS011;25906;43.536;26.068;2024-03-08T09:49:47;58.70;;;23.75;;
40198;SDS011;25906;43.536;26.068;2024-03-08T09:52:33;57.00;;;23.55;;
40198;SDS011;25906;43.536;26.068;2024-03-08T09:55:18;62.15;;;23.90;;
40198;SDS011;25906;43.536;26.068;2024-03-08T09:58:07;50.90;;;21.33;;
40198;SDS011;25906;43.536;26.068;2024-03-08T10:01:12;59.25;;;23.58;;
40198;SDS011;25906;43.536;26.068;2024-03-08T10:03:57;56.55;;;23.60;;
40198;SDS011;25906;43.536;26.068;2024-03-08T10:06:42;58.10;;;24.35;;
40198;SDS011;25906;43.536;26.068;2024-03-08T10:09:28;55.40;;;22.73;;
40198;SDS011;25906;43.536;26.068;2024-03-08T10:12:14;55.67;;;23.42;;
40198;SDS011;25906;43.536;26.068;2024-03-08T10:15:00;57.40;;;23.15;;
40198;SDS011;25906;43.536;26.068;2024-03-08T10:17:46;53.00;;;23.27;;
40198;SDS011;25906;43.536;26.068;2024-03-08T10:20:32;52.67;;;22.45;;
40198;SDS011;25906;43.536;26.068;2024-03-08T10:23:20;59.17;;;23.38;;
40198;SDS011;25906;43.536;26.068;2024-03-08T10:29:00;53.00;;;22.08;;
40198;SDS011;25906;43.536;26.068;2024-03-08T10:31:49;52.05;;;22.63;;
40198;SDS011;25906;43.536;26.068;2024-03-08T10:34:35;47.92;;;22.73;;
40198;SDS011;25906;43.536;26.068;2024-03-08T10:37:21;52.47;;;21.65;;
40198;SDS011;25906;43.536;26.068;2024-03-08T10:40:10;50.40;;;22.13;;
40198;SDS011;25906;43.536;26.068;2024-03-08T10:43:03;54.83;;;22.38;;
40198;SDS011;25906;43.536;26.068;2024-03-08T10:45:49;57.72;;;22.48;;
40198;SDS011;25906;43.536;26.068;2024-03-08T10:48:43;50.40;;;21.77;;
40198;SDS011;25906;43.536;26.068;2024-03-08T10:51:30;45.50;;;20.95;;
40198;SDS011;25906;43.536;26.068;2024-03-08T10:54:16;48.85;;;21.17;;
40198;SDS011;25906;43.536;26.068;2024-03-08T10:57:02;50.17;;;21.48;;
40198;SDS011;25906;43.536;26.068;2024-03-08T10:59:50;51.50;;;21.77;;
40198;SDS011;25906;43.536;26.068;2024-03-08T11:02:37;52.75;;;22.05;;
40198;SDS011;25906;43.536;26.068;2024-03-08T11:08:23;46.20;;;20.08;;
40198;SDS011;25906;43.536;26.068;2024-03-08T11:11:31;47.15;;;21.17;;
40198;SDS011;25906;43.536;26.068;2024-03-08T11:20:14;49.22;;;20.30;;
40198;SDS011;25906;43.536;26.068;2024-03-08T11:23:02;44.90;;;20.25;;
40198;SDS011;25906;43.536;26.068;2024-03-08T11:25:49;45.25;;;20.42;;
40198;SDS011;25906;43.536;26.068;2024-03-08T11:28:37;42.38;;;20.48;;
40198;SDS011;25906;43.536;26.068;2024-03-08T11:34:15;38.70;;;18.80;;
40198;SDS011;25906;43.536;26.068;2024-03-08T11:37:03;43.92;;;20.00;;
40198;SDS011;25906;43.536;26.068;2024-03-08T11:39:51;142.23;;;49.83;;
40198;SDS011;25906;43.536;26.068;2024-03-08T11:42:37;48.00;;;20.50;;
40198;SDS011;25906;43.536;26.068;2024-03-08T11:45:23;53.75;;;23.67;;
40198;SDS011;25906;43.536;26.068;2024-03-08T11:48:08;43.10;;;18.50;;
40198;SDS011;25906;43.536;26.068;2024-03-08T11:51:03;36.00;;;18.02;;
40198;SDS011;25906;43.536;26.068;2024-03-08T11:53:50;43.97;;;20.02;;
40198;SDS011;25906;43.536;26.068;2024-03-08T11:56:35;53.90;;;24.15;;
40198;SDS011;25906;43.536;26.068;2024-03-08T11:59:21;43.85;;;20.42;;
40198;SDS011;25906;43.536;26.068;2024-03-08T12:02:07;44.40;;;18.95;;
40198;SDS011;25906;43.536;26.068;2024-03-08T12:04:56;42.40;;;17.67;;
40198;SDS011;25906;43.536;26.068;2024-03-08T12:07:55;40.05;;;18.08;;
40198;SDS011;25906;43.536;26.068;2024-03-08T12:10:41;42.40;;;19.42;;
40198;SDS011;25906;43.536;26.068;2024-03-08T12:13:28;40.33;;;18.80;;
40198;SDS011;25906;43.536;26.068;2024-03-08T12:16:16;38.97;;;17.38;;
40198;SDS011;25906;43.536;26.068;2024-03-08T12:19:03;44.47;;;20.67;;
40198;SDS011;25906;43.536;26.068;2024-03-08T12:21:49;45.15;;;18.92;;
40198;SDS011;25906;43.536;26.068;2024-03-08T12:24:35;95.25;;;37.42;;
40198;SDS011;25906;43.536;26.068;2024-03-08T12:27:22;42.50;;;20.35;;
40198;SDS011;25906;43.536;26.068;2024-03-08T12:30:27;45.58;;;20.05;;
40198;SDS011;25906;43.536;26.068;2024-03-08T12:33:18;72.07;;;32.10;;
40198;SDS011;25906;43.536;26.068;2024-03-08T12:36:04;96.60;;;40.90;;
40198;SDS011;25906;43.536;26.068;2024-03-08T12:38:53;50.95;;;21.98;;
40198;SDS011;25906;43.536;26.068;2024-03-08T12:41:39;47.67;;;21.42;;
40198;SDS011;25906;43.536;26.068;2024-03-08T12:44:26;55.15;;;26.80;;
40198;SDS011;25906;43.536;26.068;2024-03-08T12:47:13;41.83;;;18.48;;
40198;SDS011;25906;43.536;26.068;2024-03-08T12:49:58;42.90;;;19.27;;
40198;SDS011;25906;43.536;26.068;2024-03-08T12:52:44;47.53;;;20.15;;
40198;SDS011;25906;43.536;26.068;2024-03-08T12:55:29;45.75;;;19.55;;
40198;SDS011;25906;43.536;26.068;2024-03-08T12:58:15;46.83;;;20.98;;
40198;SDS011;25906;43.536;26.068;2024-03-08T13:01:02;46.53;;;19.98;;
40198;SDS011;25906;43.536;26.068;2024-03-08T13:03:53;40.45;;;19.73;;
40198;SDS011;25906;43.536;26.068;2024-03-08T13:06:38;41.50;;;19.77;;
40198;SDS011;25906;43.536;26.068;2024-03-08T13:09:26;44.35;;;20.33;;
40198;SDS011;25906;43.536;26.068;2024-03-08T13:12:12;46.60;;;20.83;;
40198;SDS011;25906;43.536;26.068;2024-03-08T13:14:58;44.60;;;21.15;;
40198;SDS011;25906;43.536;26.068;2024-03-08T13:17:43;48.28;;;20.13;;
40198;SDS011;25906;43.536;26.068;2024-03-08T13:20:31;50.63;;;22.02;;
40198;SDS011;25906;43.536;26.068;2024-03-08T13:23:16;48.58;;;21.20;;
40198;SDS011;25906;43.536;26.068;2024-03-08T13:28:49;45.80;;;20.20;;
40198;SDS011;25906;43.536;26.068;2024-03-08T13:31:38;43.90;;;19.05;;
40198;SDS011;25906;43.536;26.068;2024-03-08T13:34:24;49.47;;;23.23;;
40198;SDS011;25906;43.536;26.068;2024-03-08T13:37:14;47.15;;;21.33;;
40198;SDS011;25906;43.536;26.068;2024-03-08T13:40:01;46.85;;;20.98;;
40198;SDS011;25906;43.536;26.068;2024-03-08T13:42:46;45.38;;;19.25;;
40198;SDS011;25906;43.536;26.068;2024-03-08T13:45:34;46.72;;;22.15;;
40198;SDS011;25906;43.536;26.068;2024-03-08T13:48:23;44.15;;;20.95;;
40198;SDS011;25906;43.536;26.068;2024-03-08T13:51:08;43.33;;;20.83;;
40198;SDS011;25906;43.536;26.068;2024-03-08T13:54:00;41.28;;;19.77;;
40198;SDS011;25906;43.536;26.068;2024-03-08T13:56:45;45.10;;;21.08;;
40198;SDS011;25906;43.536;26.068;2024-03-08T13:59:31;43.95;;;19.85;;
40198;SDS011;25906;43.536;26.068;2024-03-08T14:02:18;48.60;;;19.50;;
40198;SDS011;25906;43.536;26.068;2024-03-08T14:05:03;42.13;;;19.23;;
40198;SDS011;25906;43.536;26.068;2024-03-08T14:07:49;40.92;;;18.25;;
40198;SDS011;25906;43.536;26.068;2024-03-08T14:10:35;50.70;;;20.25;;
40198;SDS011;25906;43.536;26.068;2024-03-08T14:13:22;42.22;;;18.10;;
40198;SDS011;25906;43.536;26.068;2024-03-08T14:16:08;39.53;;;17.95;;
40198;SDS011;25906;43.536;26.068;2024-03-08T14:18:54;48.58;;;19.83;;
40198;SDS011;25906;43.536;26.068;2024-03-08T14:21:39;43.05;;;19.90;;
40198;SDS011;25906;43.536;26.068;2024-03-08T14:24:27;42.78;;;19.50;;
40198;SDS011;25906;43.536;26.068;2024-03-08T14:27:12;48.95;;;20.23;;
40198;SDS011;25906;43.536;26.068;2024-03-08T14:29:59;45.53;;;20.02;;
40198;SDS011;25906;43.536;26.068;2024-03-08T14:32:45;48.47;;;20.15;;
40198;SDS011;25906;43.536;26.068;2024-03-08T14:35:32;49.13;;;20.45;;
40198;SDS011;25906;43.536;26.068;2024-03-08T14:38:17;49.90;;;20.42;;
40198;SDS011;25906;43.536;26.068;2024-03-08T14:41:03;44.30;;;20.88;;
40198;SDS011;25906;43.536;26.068;2024-03-08T14:46:34;50.55;;;20.50;;
40198;SDS011;25906;43.536;26.068;2024-03-08T14:49:20;44.95;;;20.65;;
40198;SDS011;25906;43.536;26.068;2024-03-08T14:55:11;51.70;;;19.75;;
40198;SDS011;25906;43.536;26.068;2024-03-08T14:58:00;43.08;;;19.80;;
40198;SDS011;25906;43.536;26.068;2024-03-08T15:00:45;45.15;;;21.58;;
40198;SDS011;25906;43.536;26.068;2024-03-08T15:03:31;41.55;;;19.55;;
40198;SDS011;25906;43.536;26.068;2024-03-08T15:06:17;44.75;;;20.35;;
40198;SDS011;25906;43.536;26.068;2024-03-08T15:09:05;46.22;;;19.55;;
40198;SDS011;25906;43.536;26.068;2024-03-08T15:12:10;49.67;;;20.17;;
40198;SDS011;25906;43.536;26.068;2024-03-08T15:14:56;45.78;;;20.25;;
40198;SDS011;25906;43.536;26.068;2024-03-08T15:17:42;41.08;;;19.90;;
40198;SDS011;25906;43.536;26.068;2024-03-08T15:20:27;58.50;;;25.13;;
40198;SDS011;25906;43.536;26.068;2024-03-08T15:23:14;77.50;;;33.10;;
40198;SDS011;25906;43.536;26.068;2024-03-08T15:26:01;51.28;;;23.40;;
40198;SDS011;25906;43.536;26.068;2024-03-08T15:28:48;58.58;;;26.48;;
40198;SDS011;25906;43.536;26.068;2024-03-08T15:31:36;51.72;;;23.42;;
40198;SDS011;25906;43.536;26.068;2024-03-08T15:34:23;55.13;;;23.70;;
40198;SDS011;25906;43.536;26.068;2024-03-08T15:37:10;55.10;;;24.73;;
40198;SDS011;25906;43.536;26.068;2024-03-08T15:40:00;49.20;;;21.15;;
40198;SDS011;25906;43.536;26.068;2024-03-08T15:45:36;50.47;;;25.50;;
40198;SDS011;25906;43.536;26.068;2024-03-08T15:48:22;51.17;;;22.23;;
40198;SDS011;25906;43.536;26.068;2024-03-08T15:51:08;57.72;;;23.45;;
40198;SDS011;25906;43.536;26.068;2024-03-08T15:53:55;43.08;;;20.95;;
40198;SDS011;25906;43.536;26.068;2024-03-08T15:56:41;42.65;;;20.75;;
40198;SDS011;25906;43.536;26.068;2024-03-08T15:59:26;48.15;;;21.75;;
40198;SDS011;25906;43.536;26.068;2024-03-08T16:02:13;46.30;;;20.55;;
40198;SDS011;25906;43.536;26.068;2024-03-08T16:04:59;48.70;;;21.98;;
40198;SDS011;25906;43.536;26.068;2024-03-08T16:07:44;59.63;;;24.40;;
40198;SDS011;25906;43.536;26.068;2024-03-08T16:10:30;46.70;;;20.75;;
40198;SDS011;25906;43.536;26.068;2024-03-08T16:13:19;51.13;;;22.80;;
40198;SDS011;25906;43.536;26.068;2024-03-08T16:16:08;46.63;;;21.20;;
40198;SDS011;25906;43.536;26.068;2024-03-08T16:18:53;50.10;;;22.58;;
40198;SDS011;25906;43.536;26.068;2024-03-08T16:21:39;50.78;;;22.63;;
40198;SDS011;25906;43.536;26.068;2024-03-08T16:27:10;52.65;;;22.40;;
40198;SDS011;25906;43.536;26.068;2024-03-08T16:29:55;52.03;;;21.23;;
40198;SDS011;25906;43.536;26.068;2024-03-08T16:32:44;67.50;;;29.17;;
40198;SDS011;25906;43.536;26.068;2024-03-08T16:35:32;71.13;;;31.20;;
40198;SDS011;25906;43.536;26.068;2024-03-08T16:38:17;64.50;;;29.80;;
40198;SDS011;25906;43.536;26.068;2024-03-08T16:43:49;60.95;;;26.10;;
40198;SDS011;25906;43.536;26.068;2024-03-08T16:46:34;58.70;;;26.40;;
40198;SDS011;25906;43.536;26.068;2024-03-08T16:52:06;48.90;;;22.55;;
40198;SDS011;25906;43.536;26.068;2024-03-08T16:54:51;50.97;;;23.00;;
40198;SDS011;25906;43.536;26.068;2024-03-08T16:57:37;66.00;;;27.45;;
40198;SDS011;25906;43.536;26.068;2024-03-08T17:00:24;60.50;;;24.50;;
40198;SDS011;25906;43.536;26.068;2024-03-08T17:03:14;69.20;;;27.05;;
40198;SDS011;25906;43.536;26.068;2024-03-08T17:05:59;54.60;;;24.58;;
40198;SDS011;25906;43.536;26.068;2024-03-08T17:08:45;56.83;;;23.50;;